Terminal Aerodrome Forecast
Issued by NWS

Home | Current Version | Previous Version | Text Only | Print | Product List | Glossary On
Versions: 1 2 3 4 5 6 7 8 9 10 11 12 13 14 15 16 17 18 19
245
FTUS43 KDLH 240757 AAA
TAFHIB
TAF AMD
KHIB 240757Z 2408/2506 VRB04KT P6SM VCTS SCT025CB SCT060
      TEMPO 2409/2411 2SM -RA BR BKN015
     FM241100 VRB03KT P6SM SCT080
      TEMPO 2411/2413 3/4SM BR SCT005
     FM241800 31007KT P6SM VCTS SCT035CB BKN070
     FM250100 08005KT P6SM SCT070=

USA.gov is the U.S. government's official web portal to all federal, state and local government web resources and services.